Time;durP1;ratioP1;P1;durP2;ratioP2;P2;SDS_P1;SDS_P2;PMS_P1;PMS_P2;Temp;Humidity;BMP_temperature;BMP_pressure;BME280_temperature;BME280_humidity;BME280_pressure;Samples;Min_cycle;Max_cycle;Signal;HPM_P1;HPM_P2
2021/07/28 00:02:01;;;;;;;9.88;6.05;;;;;;;17.90;100.00;96499.06;5040797;28;20520;-63
2021/07/28 00:04:26;;;;;;;9.35;5.75;;;;;;;17.90;100.00;96502.59;5034407;28;20079;-63
2021/07/28 00:06:51;;;;;;;8.07;5.30;;;;;;;17.93;100.00;96496.22;5023973;28;20498;-65
2021/07/28 00:09:17;;;;;;;15.02;5.32;;;;;;;17.98;100.00;96494.16;5017272;28;20048;-61
2021/07/28 00:11:42;;;;;;;11.32;5.90;;;;;;;17.96;100.00;96494.59;5021714;28;20048;-61
2021/07/28 00:14:08;;;;;;;13.15;5.63;;;;;;;17.78;100.00;96492.84;5013091;28;20040;-63
2021/07/28 00:16:33;;;;;;;11.30;5.70;;;;;;;17.71;100.00;96492.19;5019491;28;20383;-62
2021/07/28 00:19:18;;;;;;;9.18;5.78;;;;;;;17.68;100.00;96488.28;5019531;28;20069;-64
2021/07/28 00:24:44;;;;;;;15.13;5.65;;;;;;;17.74;100.00;96503.19;4901584;29;20051;-63
2021/07/28 00:27:10;;;;;;;11.55;5.50;;;;;;;17.78;100.00;96509.47;4990343;28;20405;-64
2021/07/28 00:29:37;;;;;;;8.93;5.03;;;;;;;17.93;100.00;96503.72;5022219;28;20506;-62
2021/07/28 00:32:03;;;;;;;13.13;5.72;;;;;;;17.80;100.00;96509.06;5018518;28;20045;-64
2021/07/28 00:34:28;;;;;;;11.85;6.35;;;;;;;17.67;100.00;96508.84;5017248;28;20654;-63
2021/07/28 00:36:54;;;;;;;10.13;5.97;;;;;;;17.62;100.00;96503.78;5018251;28;20046;-63
2021/07/28 00:39:19;;;;;;;9.88;5.32;;;;;;;17.63;100.00;96510.09;5027486;28;20045;-63
2021/07/28 00:41:45;;;;;;;11.82;5.80;;;;;;;17.63;100.00;96518.41;5041726;28;20588;-61
2021/07/28 00:44:12;;;;;;;9.82;5.68;;;;;;;17.63;100.00;96521.97;5035758;28;20045;-62
2021/07/28 00:46:37;;;;;;;12.43;6.05;;;;;;;17.73;100.00;96511.94;5041788;28;20405;-61
2021/07/28 00:49:03;;;;;;;9.73;5.55;;;;;;;17.82;100.00;96517.72;5039641;28;20041;-63
2021/07/28 00:51:29;;;;;;;8.10;5.07;;;;;;;17.83;100.00;96513.75;5037424;28;20136;-62
2021/07/28 00:53:56;;;;;;;9.38;5.38;;;;;;;17.73;100.00;96506.38;5040124;28;20040;-62
2021/07/28 00:56:21;;;;;;;9.95;5.05;;;;;;;17.76;100.00;96519.41;5036202;28;20091;-62
2021/07/28 00:58:47;;;;;;;10.60;5.07;;;;;;;17.76;100.00;96524.94;5032227;28;20041;-63
2021/07/28 01:01:14;;;;;;;8.95;5.38;;;;;;;17.77;100.00;96526.50;5015742;28;20044;-63
2021/07/28 01:03:42;;;;;;;8.07;5.18;;;;;;;17.86;100.00;96521.28;5021094;28;20378;-64
2021/07/28 01:06:08;;;;;;;13.68;5.55;;;;;;;17.87;100.00;96513.72;4997583;28;20084;-61
2021/07/28 01:08:34;;;;;;;14.10;5.65;;;;;;;17.86;100.00;96515.72;5027486;28;20111;-65
2021/07/28 01:11:01;;;;;;;10.07;6.30;;;;;;;17.73;100.00;96534.84;5050962;28;20040;-62
2021/07/28 01:13:30;;;;;;;10.35;5.22;;;;;;;17.58;100.00;96534.28;5046953;28;20136;-63
2021/07/28 01:16:06;;;;;;;8.50;5.68;;;;;;;17.52;100.00;96532.41;5055092;28;20602;-65
2021/07/28 01:18:33;;;;;;;9.30;5.60;;;;;;;17.50;100.00;96537.56;5055073;28;20449;-64
2021/07/28 01:20:59;;;;;;;8.52;5.85;;;;;;;17.53;100.00;96539.50;5061639;28;20045;-63
2021/07/28 01:23:26;;;;;;;13.23;5.63;;;;;;;17.39;100.00;96534.94;5043649;28;20048;-63
2021/07/28 01:25:53;;;;;;;8.25;5.53;;;;;;;17.37;100.00;96534.56;5052101;28;20119;-64
2021/07/28 01:28:20;;;;;;;12.50;5.38;;;;;;;17.39;100.00;96546.00;5043571;28;20059;-63
2021/07/28 01:30:55;;;;;;;10.48;5.78;;;;;;;17.41;100.00;96542.84;5042486;28;20517;-63
2021/07/28 01:33:20;;;;;;;9.20;5.45;;;;;;;17.43;100.00;96538.47;5043006;28;20114;-63
2021/07/28 01:35:46;;;;;;;10.90;5.90;;;;;;;17.38;100.00;96530.63;5040857;28;20041;-63
2021/07/28 01:38:11;;;;;;;13.43;6.50;;;;;;;17.24;100.00;96531.56;5039333;28;20072;-63
2021/07/28 01:40:40;;;;;;;10.27;7.25;;;;;;;17.06;100.00;96525.50;5049189;28;20043;-63
2021/07/28 01:43:13;;;;;;;10.95;7.18;;;;;;;16.75;100.00;96528.94;5046480;28;20041;-64
2021/07/28 01:45:39;;;;;;;16.08;8.45;;;;;;;16.68;100.00;96526.25;5058119;28;20120;-63
2021/07/28 01:48:05;;;;;;;14.18;7.55;;;;;;;16.67;100.00;96529.44;5040552;28;20124;-63
2021/07/28 01:50:30;;;;;;;17.60;8.00;;;;;;;16.71;100.00;96525.44;5043274;28;20584;-60
2021/07/28 01:53:01;;;;;;;15.18;7.65;;;;;;;16.81;100.00;96526.53;5052201;28;20087;-60
2021/07/28 01:55:27;;;;;;;17.73;7.70;;;;;;;16.90;100.00;96517.75;5046334;28;20041;-60
2021/07/28 01:57:57;;;;;;;15.20;8.20;;;;;;;16.97;100.00;96512.94;5055407;28;20041;-61
2021/07/28 02:00:23;;;;;;;18.52;7.57;;;;;;;17.07;100.00;96518.75;5041815;28;20081;-61
2021/07/28 02:02:49;;;;;;;11.60;7.05;;;;;;;17.35;100.00;96512.84;5047603;28;20056;-61
2021/07/28 02:05:14;;;;;;;15.18;8.43;;;;;;;17.39;100.00;96521.91;5048989;28;20048;-61
2021/07/28 02:07:40;;;;;;;17.10;9.40;;;;;;;17.39;100.00;96524.66;5053651;28;20124;-61
2021/07/28 02:10:06;;;;;;;13.25;8.63;;;;;;;17.51;100.00;96514.22;5047963;28;20139;-61
2021/07/28 02:12:32;;;;;;;14.23;9.07;;;;;;;17.73;100.00;96517.47;5049944;28;20045;-62
2021/07/28 02:14:58;;;;;;;16.15;8.55;;;;;;;17.78;100.00;96498.38;5052783;28;20632;-61
2021/07/28 02:17:23;;;;;;;14.85;8.30;;;;;;;17.87;100.00;96505.44;5041853;28;20068;-62
2021/07/28 02:19:49;;;;;;;13.32;8.55;;;;;;;17.96;100.00;96506.44;5047621;28;20069;-62
2021/07/28 02:22:15;;;;;;;21.45;13.73;;;;;;;17.84;100.00;96509.00;5039309;28;20490;-62
2021/07/28 02:24:41;;;;;;;17.60;11.32;;;;;;;17.75;100.00;96517.81;5048408;28;20174;-63
2021/07/28 02:27:07;;;;;;;20.88;8.95;;;;;;;17.63;100.00;96518.41;5043140;28;20115;-60
2021/07/28 02:29:34;;;;;;;15.48;9.90;;;;;;;17.60;100.00;96522.03;5038579;28;20149;-64
2021/07/28 02:32:01;;;;;;;16.40;10.77;;;;;;;17.52;100.00;96513.00;5039166;28;20068;-63
2021/07/28 02:34:27;;;;;;;14.75;8.60;;;;;;;17.59;100.00;96512.91;5030115;28;20052;-63
2021/07/28 02:36:52;;;;;;;16.05;8.55;;;;;;;17.60;100.00;96514.50;5050298;28;20123;-62
2021/07/28 02:39:18;;;;;;;13.95;8.63;;;;;;;17.53;100.00;96514.59;5044678;28;20143;-61
2021/07/28 02:41:43;;;;;;;17.88;9.23;;;;;;;17.51;100.00;96514.22;5047061;28;20400;-61
2021/07/28 02:44:09;;;;;;;20.25;11.00;;;;;;;17.47;100.00;96507.97;5043026;28;20106;-61
2021/07/28 02:46:34;;;;;;;15.32;9.13;;;;;;;17.46;100.00;96517.47;5048069;28;20044;-62
2021/07/28 02:48:59;;;;;;;13.20;8.85;;;;;;;17.63;100.00;96510.88;5050473;28;20495;-60
2021/07/28 02:51:25;;;;;;;13.68;8.35;;;;;;;17.63;100.00;96512.84;5045515;28;20040;-61
2021/07/28 02:53:50;;;;;;;15.65;9.82;;;;;;;17.52;100.00;96510.25;5060950;28;20043;-60
2021/07/28 02:56:15;;;;;;;14.18;9.05;;;;;;;17.45;100.00;96529.72;5037159;28;20037;-60
2021/07/28 02:58:41;;;;;;;16.40;8.45;;;;;;;17.34;100.00;96522.38;5039270;28;20041;-62
2021/07/28 03:01:06;;;;;;;15.48;9.43;;;;;;;17.26;100.00;96523.63;5025049;28;20056;-60
2021/07/28 03:03:31;;;;;;;21.90;14.50;;;;;;;17.20;100.00;96514.25;5047529;28;20045;-60
2021/07/28 03:05:57;;;;;;;18.20;11.90;;;;;;;17.19;100.00;96515.44;5052587;28;20129;-61
2021/07/28 03:08:22;;;;;;;15.18;10.15;;;;;;;17.23;100.00;96516.16;5047113;28;20036;-61
2021/07/28 03:10:48;;;;;;;14.35;9.18;;;;;;;17.25;100.00;96508.25;5061469;28;20040;-61
2021/07/28 03:13:14;;;;;;;12.75;8.50;;;;;;;17.30;100.00;96515.28;5048109;28;20035;-59
2021/07/28 03:15:39;;;;;;;14.38;8.38;;;;;;;17.50;100.00;96507.09;5060274;28;20036;-60
2021/07/28 03:18:05;;;;;;;13.18;8.27;;;;;;;17.58;100.00;96512.13;5041296;28;20052;-60
2021/07/28 03:20:30;;;;;;;13.60;7.80;;;;;;;17.63;100.00;96504.56;5050336;28;20512;-62
2021/07/28 03:22:56;;;;;;;17.52;8.20;;;;;;;17.67;100.00;96494.22;5042784;28;20049;-63
2021/07/28 03:25:21;;;;;;;12.60;8.02;;;;;;;17.69;100.00;96495.38;5019350;28;20067;-61
2021/07/28 03:27:46;;;;;;;14.82;7.88;;;;;;;17.56;100.00;96489.63;5041992;28;20037;-61
2021/07/28 03:30:12;;;;;;;10.85;7.28;;;;;;;17.49;100.00;96497.25;5037559;28;20112;-61
2021/07/28 03:32:38;;;;;;;13.35;7.47;;;;;;;17.52;100.00;96501.94;5044897;28;20064;-62
2021/07/28 03:35:04;;;;;;;12.75;8.00;;;;;;;17.40;100.00;96492.22;5036468;28;20385;-61
2021/07/28 03:37:29;;;;;;;15.63;7.90;;;;;;;17.31;100.00;96505.81;5054101;28;20079;-61
2021/07/28 03:40:02;;;;;;;13.55;8.60;;;;;;;17.30;100.00;96515.28;5051204;28;20071;-60
2021/07/28 03:42:29;;;;;;;12.52;7.78;;;;;;;17.21;100.00;96515.78;5045054;28;20049;-61
2021/07/28 03:44:56;;;;;;;10.93;7.47;;;;;;;17.20;100.00;96517.78;5039524;28;20375;-62
2021/07/28 03:47:23;;;;;;;13.63;7.78;;;;;;;17.22;100.00;96516.59;5043993;28;20060;-61
2021/07/28 03:49:48;;;;;;;12.20;6.90;;;;;;;17.32;100.00;96510.94;5052821;28;20058;-62
2021/07/28 03:52:13;;;;;;;9.45;6.60;;;;;;;17.48;100.00;96504.75;5044470;28;20048;-63
2021/07/28 03:54:39;;;;;;;12.18;7.35;;;;;;;17.68;100.00;96504.09;5051146;28;20041;-59
2021/07/28 03:57:05;;;;;;;11.82;7.00;;;;;;;17.74;100.00;96499.66;5049851;28;20060;-62
2021/07/28 03:59:30;;;;;;;15.75;8.18;;;;;;;17.67;100.00;96497.00;5049755;28;20098;-61
2021/07/28 04:01:56;;;;;;;14.07;7.60;;;;;;;17.54;100.00;96480.94;5047679;28;20036;-62
2021/07/28 04:04:21;;;;;;;12.82;7.63;;;;;;;17.56;100.00;96486.06;5043512;28;20580;-62
2021/07/28 04:06:46;;;;;;;10.77;6.72;;;;;;;17.63;100.00;96474.09;5049782;28;20101;-62
2021/07/28 04:09:12;;;;;;;12.45;7.20;;;;;;;17.71;100.00;96470.03;5042006;28;20065;-61
2021/07/28 04:11:37;;;;;;;17.83;7.55;;;;;;;17.71;100.00;96461.72;5050925;28;20056;-62
2021/07/28 04:14:03;;;;;;;11.35;6.28;;;;;;;17.69;100.00;96466.88;5048399;28;20041;-63
2021/07/28 04:16:28;;;;;;;10.65;6.65;;;;;;;17.58;100.00;96478.91;5041385;28;20099;-61
2021/07/28 04:18:54;;;;;;;10.73;7.63;;;;;;;17.50;100.00;96471.13;5046053;28;20041;-62
2021/07/28 04:21:19;;;;;;;14.48;7.38;;;;;;;17.35;100.00;96463.00;5046581;28;20106;-62
2021/07/28 04:23:44;;;;;;;10.60;7.10;;;;;;;17.14;100.00;96461.34;5049939;28;20490;-62
2021/07/28 04:26:10;;;;;;;19.33;8.63;;;;;;;16.84;100.00;96464.88;5047486;28;20094;-62
2021/07/28 04:28:35;;;;;;;20.58;9.27;;;;;;;16.68;100.00;96482.03;5043389;28;20041;-62
2021/07/28 04:31:00;;;;;;;19.52;10.10;;;;;;;16.63;100.00;96488.78;5048923;28;20759;-61
2021/07/28 04:33:26;;;;;;;15.38;10.38;;;;;;;16.58;100.00;96480.16;5044119;28;20064;-63
2021/07/28 04:35:51;;;;;;;15.60;10.68;;;;;;;16.56;100.00;96482.53;5051839;28;20077;-62
2021/07/28 04:38:17;;;;;;;19.63;11.95;;;;;;;16.53;100.00;96475.06;5041809;28;20445;-63
2021/07/28 04:40:42;;;;;;;16.77;11.27;;;;;;;16.60;100.00;96477.75;5049752;28;20048;-61
2021/07/28 04:43:08;;;;;;;18.85;11.18;;;;;;;16.73;100.00;96484.34;5034835;28;20033;-62
2021/07/28 04:45:33;;;;;;;16.55;10.70;;;;;;;16.84;100.00;96480.69;5047538;28;20425;-62
2021/07/28 04:47:58;;;;;;;15.80;10.27;;;;;;;16.95;100.00;96489.66;5050954;28;20131;-62
2021/07/28 04:50:24;;;;;;;15.88;9.05;;;;;;;17.11;100.00;96489.06;5049551;28;20051;-61
2021/07/28 04:52:49;;;;;;;16.63;9.10;;;;;;;17.29;100.00;96488.84;5040909;28;20040;-63
2021/07/28 04:55:15;;;;;;;13.02;9.27;;;;;;;17.37;100.00;96493.81;5042858;28;20051;-61
2021/07/28 04:57:40;;;;;;;16.55;8.77;;;;;;;17.42;100.00;96495.34;5048222;28;20048;-63
2021/07/28 05:00:06;;;;;;;13.18;7.40;;;;;;;17.47;100.00;96510.72;5044369;28;20715;-61
2021/07/28 05:02:31;;;;;;;15.05;8.27;;;;;;;17.57;100.00;96502.28;5044820;28;20489;-61
2021/07/28 05:04:57;;;;;;;14.23;8.40;;;;;;;17.65;100.00;96507.72;5012809;28;20132;-63
2021/07/28 05:07:22;;;;;;;13.02;7.68;;;;;;;17.68;100.00;96507.66;5043112;28;20049;-62
2021/07/28 05:09:48;;;;;;;15.40;8.23;;;;;;;17.63;100.00;96510.09;5050272;28;20041;-63
2021/07/28 05:12:13;;;;;;;11.60;7.60;;;;;;;17.66;100.00;96512.81;5049330;28;20043;-63
2021/07/28 05:14:38;;;;;;;13.55;8.80;;;;;;;17.71;100.00;96509.56;5051668;28;20047;-63
2021/07/28 05:17:04;;;;;;;14.55;8.32;;;;;;;17.90;100.00;96497.06;5039283;28;20047;-62
2021/07/28 05:19:30;;;;;;;10.43;7.18;;;;;;;18.05;100.00;96480.97;5047080;28;20128;-63
2021/07/28 05:21:55;;;;;;;12.05;6.85;;;;;;;18.17;100.00;96492.66;5049599;28;20044;-62
2021/07/28 05:24:20;;;;;;;10.88;6.68;;;;;;;18.20;100.00;96489.03;5035505;28;20072;-65
2021/07/28 05:26:46;;;;;;;12.00;7.40;;;;;;;18.01;100.00;96488.56;5045901;28;20156;-63
2021/07/28 05:29:11;;;;;;;15.35;7.72;;;;;;;17.58;100.00;96494.75;5046848;28;20032;-64
2021/07/28 05:31:37;;;;;;;12.63;8.25;;;;;;;17.41;100.00;96495.78;5046848;28;20585;-61
2021/07/28 05:34:02;;;;;;;13.70;6.93;;;;;;;17.63;100.00;96499.00;5050265;28;20043;-62
2021/07/28 05:36:27;;;;;;;10.75;7.38;;;;;;;17.81;100.00;96496.78;5057864;28;20045;-62
2021/07/28 05:38:53;;;;;;;10.40;7.32;;;;;;;17.94;100.00;96500.53;5050536;28;20044;-62
2021/07/28 05:41:18;;;;;;;21.60;7.47;;;;;;;18.07;100.00;96488.88;5038403;28;20062;-63
2021/07/28 05:43:44;;;;;;;15.70;7.57;;;;;;;18.03;100.00;96497.25;5047830;28;20095;-63
2021/07/28 05:46:09;;;;;;;13.18;7.22;;;;;;;17.95;100.00;96495.78;5037332;28;20043;-63
2021/07/28 05:48:35;;;;;;;13.88;7.43;;;;;;;17.96;100.00;96492.59;5049331;28;20045;-61
2021/07/28 05:51:00;;;;;;;12.02;7.25;;;;;;;17.92;100.00;96494.66;5058597;28;20036;-62
2021/07/28 05:53:25;;;;;;;15.93;6.95;;;;;;;17.86;100.00;96509.38;5043420;28;20052;-60
2021/07/28 05:55:53;;;;;;;9.52;6.47;;;;;;;17.91;100.00;96512.47;5054350;28;20041;-61
2021/07/28 05:58:19;;;;;;;11.57;6.75;;;;;;;17.89;100.00;96506.56;5040884;28;20037;-63
2021/07/28 06:00:44;;;;;;;10.25;7.20;;;;;;;17.76;100.00;96511.09;5038505;28;20492;-63
2021/07/28 06:03:09;;;;;;;11.45;6.70;;;;;;;17.83;100.00;96522.06;5037552;28;20566;-62
2021/07/28 06:05:35;;;;;;;9.50;6.18;;;;;;;17.87;100.00;96514.50;5041797;28;20055;-63
2021/07/28 06:08:00;;;;;;;13.63;6.90;;;;;;;17.87;100.00;96520.06;5040059;28;20041;-62
2021/07/28 06:10:26;;;;;;;10.70;6.35;;;;;;;17.92;100.00;96529.88;5016208;28;20049;-62
2021/07/28 06:12:51;;;;;;;11.70;6.28;;;;;;;18.05;100.00;96539.16;5047738;28;20037;-62
2021/07/28 06:15:17;;;;;;;11.52;7.00;;;;;;;18.24;100.00;96542.44;5038258;28;20186;-63
2021/07/28 06:17:42;;;;;;;10.45;7.00;;;;;;;18.09;100.00;96531.56;5045612;28;20045;-63
2021/07/28 06:20:08;;;;;;;13.52;8.02;;;;;;;17.93;100.00;96532.25;5038654;28;20072;-62
2021/07/28 06:22:35;;;;;;;14.95;8.18;;;;;;;17.67;100.00;96541.31;5041616;28;20494;-62
2021/07/28 06:25:00;;;;;;;12.00;8.30;;;;;;;17.55;100.00;96545.41;5013341;28;20079;-65
2021/07/28 06:27:25;;;;;;;13.65;7.78;;;;;;;17.58;100.00;96545.38;5041811;28;20128;-64
2021/07/28 06:29:51;;;;;;;12.15;7.20;;;;;;;17.57;100.00;96548.53;5037122;28;20103;-62
2021/07/28 06:32:16;;;;;;;12.82;8.15;;;;;;;17.66;100.00;96562.66;5039025;28;20504;-61
2021/07/28 06:34:41;;;;;;;9.80;6.45;;;;;;;17.86;100.00;96567.56;5047977;28;20040;-64
2021/07/28 06:37:09;;;;;;;11.23;7.13;;;;;;;17.88;100.00;96579.81;5047369;28;20044;-63
2021/07/28 06:39:34;;;;;;;9.75;6.90;;;;;;;17.86;100.00;96576.69;5055443;28;20132;-63
2021/07/28 06:42:00;;;;;;;9.70;6.45;;;;;;;17.71;100.00;96581.59;5046836;28;20105;-64
2021/07/28 06:44:25;;;;;;;9.35;6.28;;;;;;;18.07;100.00;96572.78;5041717;28;20053;-62
2021/07/28 06:46:50;;;;;;;10.98;6.20;;;;;;;18.25;100.00;96588.38;5022184;28;20126;-63
2021/07/28 06:49:16;;;;;;;10.15;6.10;;;;;;;18.36;100.00;96586.19;5036790;28;20044;-63
2021/07/28 06:51:41;;;;;;;10.23;5.75;;;;;;;18.30;100.00;96593.44;5048798;28;20538;-63
2021/07/28 06:54:07;;;;;;;9.45;5.35;;;;;;;18.42;99.91;96590.06;5039768;28;20036;-65
2021/07/28 06:56:32;;;;;;;15.27;5.85;;;;;;;18.56;99.26;96596.56;5047912;28;20048;-62
2021/07/28 06:58:57;;;;;;;9.90;5.57;;;;;;;18.44;100.00;96603.50;5030355;28;20107;-64
2021/07/28 07:01:23;;;;;;;8.30;4.95;;;;;;;18.33;100.00;96606.47;5019849;28;20775;-64
2021/07/28 07:03:48;;;;;;;10.00;5.95;;;;;;;18.20;100.00;96602.69;5051993;28;20406;-64
2021/07/28 07:06:13;;;;;;;7.50;4.80;;;;;;;18.31;100.00;96601.34;5045904;28;20059;-64
2021/07/28 07:08:39;;;;;;;8.57;4.88;;;;;;;18.39;99.62;96599.22;5049240;28;20401;-63
2021/07/28 07:11:04;;;;;;;9.43;5.70;;;;;;;18.32;99.78;96594.56;5041221;28;20115;-61
2021/07/28 07:13:29;;;;;;;8.13;5.05;;;;;;;18.63;97.51;96605.56;5039110;28;20579;-63
2021/07/28 07:15:55;;;;;;;6.93;4.45;;;;;;;18.60;97.64;96614.75;5036864;28;20448;-63
2021/07/28 07:18:20;;;;;;;7.78;4.60;;;;;;;18.66;94.11;96617.81;5041765;28;20063;-63
2021/07/28 07:20:46;;;;;;;10.52;5.45;;;;;;;18.83;95.54;96616.72;5051056;28;20102;-63
2021/07/28 07:23:14;;;;;;;7.10;4.43;;;;;;;18.82;92.64;96631.06;5042495;28;20063;-62
2021/07/28 07:25:39;;;;;;;8.07;4.72;;;;;;;18.93;93.58;96639.97;5053964;28;20244;-62
2021/07/28 07:28:05;;;;;;;7.15;5.18;;;;;;;19.08;91.66;96654.38;5042891;28;20045;-62
2021/07/28 07:30:30;;;;;;;8.38;5.50;;;;;;;18.90;92.57;96647.13;5041615;28;20049;-62
2021/07/28 07:35:40;;;;;;;9.38;5.45;;;;;;;18.30;94.65;96644.13;5040103;28;20052;-63
2021/07/28 07:38:05;;;;;;;23.75;5.88;;;;;;;18.42;95.67;96639.19;5044255;28;20052;-61
2021/07/28 07:40:30;;;;;;;11.07;4.85;;;;;;;18.36;94.52;96633.31;5041096;28;20040;-61
2021/07/28 07:42:56;;;;;;;8.80;5.22;;;;;;;18.14;97.67;96630.88;5062415;28;20504;-63
2021/07/28 07:45:21;;;;;;;15.90;7.80;;;;;;;17.72;96.22;96615.63;5051177;28;20185;-64
2021/07/28 07:47:47;;;;;;;10.15;5.32;;;;;;;17.80;96.70;96614.31;5046963;28;20048;-64
2021/07/28 07:50:12;;;;;;;11.75;5.95;;;;;;;18.03;98.12;96626.72;5050995;28;20039;-63
2021/07/28 07:52:38;;;;;;;19.15;10.35;;;;;;;18.55;92.46;96637.41;5061228;28;20052;-62
2021/07/28 07:55:04;;;;;;;13.45;5.68;;;;;;;18.80;91.18;96647.28;5040571;28;20045;-63
2021/07/28 07:57:29;;;;;;;12.02;5.38;;;;;;;18.78;91.68;96644.94;5047610;28;20580;-62
2021/07/28 07:59:54;;;;;;;8.52;5.05;;;;;;;18.79;90.79;96648.50;5037904;28;20105;-63
2021/07/28 08:02:20;;;;;;;8.63;4.63;;;;;;;18.66;89.84;96667.75;5044367;28;20126;-63
2021/07/28 08:04:45;;;;;;;10.02;5.22;;;;;;;18.39;91.92;96667.78;5047290;28;20056;-65
2021/07/28 08:07:10;;;;;;;9.13;4.55;;;;;;;18.46;91.14;96664.88;5059229;28;20056;-63
2021/07/28 08:09:36;;;;;;;10.45;5.32;;;;;;;18.12;92.21;96660.22;5062363;28;20053;-63
2021/07/28 08:12:01;;;;;;;10.02;4.82;;;;;;;18.04;93.14;96653.19;5049882;28;20580;-62
2021/07/28 08:14:27;;;;;;;9.80;4.43;;;;;;;18.23;95.82;96654.53;5041422;28;20052;-62
2021/07/28 08:16:52;;;;;;;7.60;4.43;;;;;;;18.31;91.44;96658.75;5051152;28;20128;-63
2021/07/28 08:19:17;;;;;;;13.93;4.78;;;;;;;18.44;91.32;96658.94;5044225;28;20513;-63
2021/07/28 08:21:44;;;;;;;9.38;4.43;;;;;;;18.42;88.83;96662.16;5060381;28;20090;-62
2021/07/28 08:24:10;;;;;;;30.58;16.02;;;;;;;18.39;90.33;96668.53;5055617;28;20495;-61
2021/07/28 08:26:35;;;;;;;13.85;7.40;;;;;;;18.42;90.16;96650.28;5053062;28;20041;-63
2021/07/28 08:29:01;;;;;;;6.85;4.25;;;;;;;18.54;88.36;96649.69;5051272;28;20069;-62
2021/07/28 08:31:26;;;;;;;11.52;4.13;;;;;;;18.62;87.89;96655.91;5040842;28;20076;-62
2021/07/28 08:33:51;;;;;;;8.55;4.68;;;;;;;18.86;88.62;96654.75;5038763;28;20116;-62
2021/07/28 08:36:17;;;;;;;8.82;4.68;;;;;;;18.95;91.67;96661.75;5046390;28;20044;-63
2021/07/28 08:38:42;;;;;;;7.75;4.68;;;;;;;18.77;92.28;96664.78;5034810;28;20049;-63
2021/07/28 08:41:09;;;;;;;9.65;4.13;;;;;;;18.80;89.34;96680.56;5036221;28;20044;-63
2021/07/28 08:43:36;;;;;;;7.13;4.30;;;;;;;18.85;90.59;96689.25;5030142;28;20099;-63
2021/07/28 08:46:04;;;;;;;8.30;5.22;;;;;;;18.74;92.40;96683.03;5023487;28;20042;-62
2021/07/28 08:48:30;;;;;;;11.57;5.25;;;;;;;18.73;93.31;96687.81;5018641;28;20109;-63
2021/07/28 08:50:57;;;;;;;7.13;4.82;;;;;;;18.79;93.48;96681.78;5020199;28;20069;-65
2021/07/28 08:53:23;;;;;;;7.55;4.40;;;;;;;18.94;91.04;96679.59;5014273;28;20064;-64
2021/07/28 08:55:51;;;;;;;9.52;5.63;;;;;;;18.95;91.65;96678.41;5008687;28;20053;-64
2021/07/28 08:58:20;;;;;;;6.50;4.40;;;;;;;18.96;90.15;96677.19;5018933;28;20118;-65
2021/07/28 09:00:47;;;;;;;6.35;4.32;;;;;;;19.07;88.70;96675.00;5041212;28;20041;-64
2021/07/28 09:03:13;;;;;;;10.40;4.75;;;;;;;19.14;90.34;96677.66;5035690;28;20567;-64
2021/07/28 09:05:40;;;;;;;6.63;4.50;;;;;;;19.24;89.05;96668.34;5049184;28;20048;-65
2021/07/28 09:08:20;;;;;;;10.25;4.82;;;;;;;19.35;88.14;96676.47;5031162;28;20409;-64
2021/07/28 09:10:51;;;;;;;19.83;10.30;;;;;;;19.21;87.94;96680.31;5039213;28;20102;-64
2021/07/28 09:13:28;;;;;;;9.68;4.85;;;;;;;19.25;87.41;96689.34;5045252;28;20032;-64
2021/07/28 09:15:56;;;;;;;7.70;4.00;;;;;;;19.29;86.92;96684.50;5064846;28;20044;-64
2021/07/28 09:18:30;;;;;;;13.80;8.73;;;;;;;19.39;85.84;96688.31;5040615;28;20194;-65
2021/07/28 09:20:56;;;;;;;13.98;7.82;;;;;;;19.64;85.44;96693.41;5063796;28;20135;-64
2021/07/28 09:23:21;;;;;;;9.50;3.92;;;;;;;19.62;83.70;96697.78;5058957;28;20036;-64
2021/07/28 09:25:53;;;;;;;6.82;4.25;;;;;;;19.46;85.26;96692.94;5064437;28;20075;-64
2021/07/28 09:28:21;;;;;;;7.93;3.88;;;;;;;19.09;86.41;96692.03;5058206;28;20112;-65
2021/07/28 09:30:47;;;;;;;7.35;4.65;;;;;;;19.09;88.04;96698.34;5061409;28;20552;-64
2021/07/28 09:33:15;;;;;;;7.68;4.18;;;;;;;18.57;88.91;96701.56;5051823;28;20068;-62
2021/07/28 09:35:46;;;;;;;8.30;5.20;;;;;;;18.78;89.64;96702.41;5062454;28;20040;-63
2021/07/28 09:38:22;;;;;;;7.75;4.50;;;;;;;18.45;89.70;96696.59;5058590;28;20135;-64
2021/07/28 09:40:47;;;;;;;7.75;4.78;;;;;;;18.48;90.32;96698.53;5064066;28;20047;-65
2021/07/28 09:43:13;;;;;;;11.43;5.50;;;;;;;18.57;88.72;96700.78;5041425;28;20037;-65
2021/07/28 09:45:38;;;;;;;7.88;5.03;;;;;;;18.56;91.07;96699.97;5063559;28;20342;-64
2021/07/28 09:48:04;;;;;;;7.90;5.03;;;;;;;18.58;89.00;96697.56;5058755;28;20130;-63
2021/07/28 09:50:32;;;;;;;7.78;5.00;;;;;;;18.81;88.48;96699.59;5045331;28;20276;-65
2021/07/28 09:53:07;;;;;;;9.07;4.60;;;;;;;18.75;88.04;96694.94;5064886;28;20059;-65
2021/07/28 09:55:33;;;;;;;7.90;4.93;;;;;;;18.80;87.52;96703.56;5062092;28;20037;-65
2021/07/28 09:58:00;;;;;;;8.57;5.10;;;;;;;18.88;87.26;96702.25;5045113;28;20056;-65
2021/07/28 10:00:29;;;;;;;11.13;5.93;;;;;;;18.41;89.72;96696.63;5039363;28;20462;-64
2021/07/28 10:03:01;;;;;;;9.38;5.55;;;;;;;18.30;87.02;96693.25;5043466;28;20041;-65
2021/07/28 10:05:28;;;;;;;9.68;5.00;;;;;;;18.12;88.43;96691.50;5039145;28;20041;-65
2021/07/28 10:07:59;;;;;;;10.73;5.25;;;;;;;18.14;88.90;96691.06;5041414;28;20432;-65
2021/07/28 10:10:26;;;;;;;7.97;5.20;;;;;;;18.23;91.28;96693.34;5035847;28;20041;-64
2021/07/28 10:12:52;;;;;;;10.77;6.35;;;;;;;17.96;90.95;96689.31;5042146;28;20871;-63
2021/07/28 10:15:20;;;;;;;12.25;6.45;;;;;;;17.84;94.02;96694.59;5037863;28;20044;-63
2021/07/28 10:17:46;;;;;;;10.25;5.70;;;;;;;18.17;93.69;96697.75;5042747;28;20040;-65
2021/07/28 10:20:13;;;;;;;10.23;5.68;;;;;;;18.25;91.07;96700.03;5037531;28;20037;-64
2021/07/28 10:22:40;;;;;;;12.32;6.43;;;;;;;18.08;91.94;96695.53;5043468;28;20053;-64
2021/07/28 10:25:13;;;;;;;10.30;6.13;;;;;;;18.26;91.81;96698.06;5037389;28;20151;-63
2021/07/28 10:27:41;;;;;;;11.88;5.63;;;;;;;18.37;87.87;96698.69;5027077;28;20053;-66
2021/07/28 10:30:09;;;;;;;7.97;5.30;;;;;;;18.48;88.01;96699.31;5040032;28;20397;-64
2021/07/28 10:32:35;;;;;;;10.90;6.10;;;;;;;18.64;89.21;96693.13;5042065;28;20044;-65
2021/07/28 10:35:16;;;;;;;10.35;5.85;;;;;;;18.85;87.43;96694.00;5035272;28;20061;-65
2021/07/28 10:37:41;;;;;;;9.45;5.10;;;;;;;18.98;86.77;96699.72;5036243;28;20045;-65
2021/07/28 10:40:27;;;;;;;8.90;5.05;;;;;;;19.00;85.77;96686.25;5045649;28;20608;-65
2021/07/28 10:42:55;;;;;;;12.82;6.45;;;;;;;19.02;85.30;96694.94;5033848;28;20102;-65
2021/07/28 10:45:22;;;;;;;17.42;8.20;;;;;;;19.06;84.04;96692.88;5022505;28;20041;-64
2021/07/28 10:47:50;;;;;;;9.88;5.55;;;;;;;19.12;84.61;96690.38;5020335;28;20042;-65
2021/07/28 10:50:22;;;;;;;8.55;4.78;;;;;;;18.70;88.28;96685.88;5027019;28;20063;-65
2021/07/28 10:52:49;;;;;;;16.38;7.25;;;;;;;18.83;88.55;96686.09;5046616;28;20222;-64
2021/07/28 10:55:17;;;;;;;9.18;6.10;;;;;;;19.29;87.80;96670.63;5047940;28;20389;-64
2021/07/28 10:57:45;;;;;;;6.88;4.60;;;;;;;19.84;82.68;96673.97;5045122;28;20064;-65
2021/07/28 11:00:13;;;;;;;8.93;4.38;;;;;;;19.74;80.96;96694.41;5037939;28;20477;-65
2021/07/28 11:02:51;;;;;;;8.60;4.30;;;;;;;19.95;82.59;96692.41;5051883;28;20048;-65
2021/07/28 11:05:29;;;;;;;12.20;5.35;;;;;;;20.03;78.61;96693.81;5056831;28;20143;-65
2021/07/28 11:08:06;;;;;;;13.18;5.38;;;;;;;19.84;80.28;96696.19;5053147;28;20098;-65
2021/07/28 11:10:40;;;;;;;8.48;4.82;;;;;;;19.69;83.14;96694.88;5044508;28;20075;-65
2021/07/28 11:13:11;;;;;;;7.32;4.85;;;;;;;19.53;86.57;96690.03;5037885;28;20513;-65
2021/07/28 11:15:38;;;;;;;8.95;4.75;;;;;;;19.33;83.41;96694.78;5039714;28;20143;-64
2021/07/28 11:18:04;;;;;;;9.00;4.60;;;;;;;19.58;80.75;96688.75;5047973;28;20040;-64
2021/07/28 11:20:39;;;;;;;9.93;4.82;;;;;;;19.61;82.36;96685.91;5043814;28;20533;-65
2021/07/28 11:23:29;;;;;;;8.43;4.72;;;;;;;19.68;83.09;96679.44;5036634;28;20472;-64
2021/07/28 11:25:58;;;;;;;9.93;5.05;;;;;;;19.57;81.92;96687.97;5043270;28;20037;-64